Time;durP1;ratioP1;P1;durP2;ratioP2;P2;SDS_P1;SDS_P2;PMS_P1;PMS_P2;Temp;Humidity;BMP_temperature;BMP_pressure;BME280_temperature;BME280_humidity;BME280_pressure;Samples;Min_cycle;Max_cycle;Signal;HPM_P1;HPM_P2
2023/12/22 00:00:49;;;;;;;21.58;3.30;;;;;;;;;;4990117;28;20516;-74
2023/12/22 00:03:16;;;;;;;19.67;2.38;;;;;;;;;;4988384;28;20069;-75
2023/12/22 00:05:43;;;;;;;21.52;2.67;;;;;;;;;;4991332;28;20409;-74
2023/12/22 00:08:12;;;;;;;16.20;2.50;;;;;;;;;;4991824;28;20060;-73
2023/12/22 00:10:40;;;;;;;31.50;3.60;;;;;;;;;;4989913;28;20117;-74
2023/12/22 00:13:07;;;;;;;21.48;2.55;;;;;;;;;;4990131;28;20070;-74
2023/12/22 00:15:35;;;;;;;18.80;3.72;;;;;;;;;;4990960;28;20377;-75
2023/12/22 00:18:02;;;;;;;36.38;4.70;;;;;;;;;;4987473;28;20042;-75
2023/12/22 00:20:29;;;;;;;22.63;3.60;;;;;;;;;;4990668;28;20457;-75
2023/12/22 00:22:57;;;;;;;25.98;3.92;;;;;;;;;;4977408;28;20054;-75
2023/12/22 00:25:25;;;;;;;25.77;3.25;;;;;;;;;;4989975;28;20061;-74
2023/12/22 00:27:53;;;;;;;22.90;3.28;;;;;;;;;;4989166;28;20053;-74
2023/12/22 00:30:20;;;;;;;22.08;2.97;;;;;;;;;;4990408;28;20465;-75
2023/12/22 00:32:47;;;;;;;25.45;2.65;;;;;;;;;;4989655;28;20081;-74
2023/12/22 00:35:14;;;;;;;30.50;3.33;;;;;;;;;;4987554;28;20049;-73
2023/12/22 00:37:42;;;;;;;25.77;3.75;;;;;;;;;;4983192;28;20048;-74
2023/12/22 00:40:09;;;;;;;16.23;2.83;;;;;;;;;;4988493;28;20563;-74
2023/12/22 00:42:38;;;;;;;21.20;2.55;;;;;;;;;;4975499;28;20804;-74
2023/12/22 00:45:06;;;;;;;30.70;3.67;;;;;;;;;;4979886;28;20054;-74
2023/12/22 00:47:35;;;;;;;21.98;3.75;;;;;;;;;;4982551;28;20047;-74
2023/12/22 00:50:04;;;;;;;19.75;2.67;;;;;;;;;;4990319;28;20054;-75
2023/12/22 00:52:31;;;;;;;13.90;1.90;;;;;;;;;;4974634;28;20077;-74
2023/12/22 00:54:58;;;;;;;10.10;1.42;;;;;;;;;;4989447;28;20074;-74
2023/12/22 00:57:26;;;;;;;14.15;2.72;;;;;;;;;;4987773;28;20047;-74
2023/12/22 00:59:54;;;;;;;20.40;2.38;;;;;;;;;;4990262;28;20179;-74
2023/12/22 01:02:21;;;;;;;26.77;3.55;;;;;;;;;;4989213;28;20405;-75
2023/12/22 01:04:49;;;;;;;20.38;2.17;;;;;;;;;;4988844;28;20054;-75
2023/12/22 01:07:18;;;;;;;21.15;2.42;;;;;;;;;;4988093;28;20066;-75
2023/12/22 01:09:45;;;;;;;18.30;2.33;;;;;;;;;;4988956;28;20053;-75
2023/12/22 01:12:13;;;;;;;15.65;2.50;;;;;;;;;;4989850;28;20062;-74
2023/12/22 01:14:39;;;;;;;27.40;3.53;;;;;;;;;;4989274;28;20129;-75
2023/12/22 01:17:08;;;;;;;23.63;2.80;;;;;;;;;;4989287;28;20050;-74
2023/12/22 01:19:35;;;;;;;23.40;2.78;;;;;;;;;;4988744;28;20050;-74
2023/12/22 01:22:02;;;;;;;20.55;2.78;;;;;;;;;;4989635;28;20046;-74
2023/12/22 01:24:30;;;;;;;18.33;2.75;;;;;;;;;;4987554;28;20042;-75
2023/12/22 01:26:57;;;;;;;22.80;3.38;;;;;;;;;;4989180;28;20050;-75
2023/12/22 01:29:24;;;;;;;24.25;3.08;;;;;;;;;;4987800;28;20047;-74
2023/12/22 01:31:52;;;;;;;21.65;2.75;;;;;;;;;;4979664;28;20537;-74
2023/12/22 01:34:20;;;;;;;28.63;3.30;;;;;;;;;;4983946;28;20053;-73
2023/12/22 01:36:47;;;;;;;30.15;4.22;;;;;;;;;;4987648;28;20058;-72
2023/12/22 01:39:15;;;;;;;27.73;3.15;;;;;;;;;;4972341;28;20058;-73
2023/12/22 01:41:42;;;;;;;32.55;3.30;;;;;;;;;;4973898;28;20174;-72
2023/12/22 01:44:09;;;;;;;24.60;3.05;;;;;;;;;;4975149;28;20077;-73
2023/12/22 01:46:37;;;;;;;16.40;3.20;;;;;;;;;;4976727;28;20050;-72
2023/12/22 01:49:05;;;;;;;21.73;2.67;;;;;;;;;;4973443;28;20050;-72
2023/12/22 01:51:35;;;;;;;25.50;2.20;;;;;;;;;;4972589;28;20129;-72
2023/12/22 01:54:02;;;;;;;19.63;2.45;;;;;;;;;;4973580;28;20045;-72
2023/12/22 01:56:30;;;;;;;10.10;1.33;;;;;;;;;;4982335;28;20057;-72
2023/12/22 01:58:59;;;;;;;11.65;1.60;;;;;;;;;;4993016;28;20043;-72
2023/12/22 02:01:27;;;;;;;7.22;1.25;;;;;;;;;;4991506;28;20537;-72
2023/12/22 02:03:55;;;;;;;11.45;1.58;;;;;;;;;;4993175;28;20050;-72
2023/12/22 02:06:22;;;;;;;12.68;2.08;;;;;;;;;;4976475;28;20374;-72
2023/12/22 02:08:51;;;;;;;15.65;2.58;;;;;;;;;;4993326;28;20069;-72
2023/12/22 02:11:19;;;;;;;16.77;2.13;;;;;;;;;;4991154;28;20497;-72
2023/12/22 02:13:47;;;;;;;16.65;3.10;;;;;;;;;;4963561;28;20061;-72
2023/12/22 02:16:19;;;;;;;16.98;2.63;;;;;;;;;;4957969;28;20057;-72
2023/12/22 02:18:48;;;;;;;19.63;2.70;;;;;;;;;;4956012;28;20043;-73
2023/12/22 02:21:15;;;;;;;17.90;2.05;;;;;;;;;;4956881;28;20057;-73
2023/12/22 02:23:44;;;;;;;12.15;1.88;;;;;;;;;;4958256;28;20051;-73
2023/12/22 02:26:14;;;;;;;7.78;1.00;;;;;;;;;;4954032;28;20051;-73
2023/12/22 02:28:42;;;;;;;10.30;1.60;;;;;;;;;;4955231;28;20051;-73
2023/12/22 02:31:16;;;;;;;9.80;1.63;;;;;;;;;;4957265;28;20410;-73
2023/12/22 02:33:43;;;;;;;8.40;1.35;;;;;;;;;;4958592;28;20051;-73
2023/12/22 02:36:11;;;;;;;16.13;1.77;;;;;;;;;;4953971;28;20058;-73
2023/12/22 02:38:39;;;;;;;11.15;2.38;;;;;;;;;;4959404;28;20047;-73
2023/12/22 02:41:08;;;;;;;12.25;1.65;;;;;;;;;;4958287;28;20051;-73
2023/12/22 02:43:35;;;;;;;19.95;1.85;;;;;;;;;;4953592;28;20391;-73
2023/12/22 02:46:02;;;;;;;18.65;1.70;;;;;;;;;;4952186;28;20106;-73
2023/12/22 02:48:30;;;;;;;19.60;2.08;;;;;;;;;;4954761;28;20054;-73
2023/12/22 02:50:57;;;;;;;15.93;2.00;;;;;;;;;;4957480;28;20051;-73
2023/12/22 02:53:25;;;;;;;14.90;2.55;;;;;;;;;;4958872;28;20051;-73
2023/12/22 02:55:52;;;;;;;16.65;2.05;;;;;;;;;;4963722;28;20498;-73
2023/12/22 02:58:20;;;;;;;17.75;2.83;;;;;;;;;;4958405;28;20058;-73
2023/12/22 03:00:48;;;;;;;19.90;2.33;;;;;;;;;;4959464;28;20062;-73
2023/12/22 03:03:15;;;;;;;18.15;2.40;;;;;;;;;;4954377;28;20195;-73
2023/12/22 03:05:42;;;;;;;18.15;2.67;;;;;;;;;;4955635;28;20055;-73
2023/12/22 03:08:10;;;;;;;16.55;2.15;;;;;;;;;;4954545;28;20070;-74
2023/12/22 03:10:37;;;;;;;16.10;2.60;;;;;;;;;;4955017;28;20051;-73
2023/12/22 03:13:04;;;;;;;21.45;2.72;;;;;;;;;;4958268;28;20059;-73
2023/12/22 03:15:33;;;;;;;28.67;2.83;;;;;;;;;;4964868;28;20501;-73
2023/12/22 03:18:00;;;;;;;19.73;2.70;;;;;;;;;;4960667;28;20066;-73
2023/12/22 03:20:27;;;;;;;25.90;3.45;;;;;;;;;;4953851;28;20411;-73
2023/12/22 03:22:55;;;;;;;23.10;2.55;;;;;;;;;;4954285;28;20055;-74
2023/12/22 03:25:22;;;;;;;20.40;2.20;;;;;;;;;;4954110;28;20136;-73
2023/12/22 03:27:49;;;;;;;24.40;2.58;;;;;;;;;;4951350;28;20151;-73
2023/12/22 03:30:16;;;;;;;17.83;2.22;;;;;;;;;;4952979;28;20054;-73
2023/12/22 03:32:45;;;;;;;24.23;3.78;;;;;;;;;;4955687;28;20054;-73
2023/12/22 03:35:12;;;;;;;28.58;3.22;;;;;;;;;;4956226;28;20669;-74
2023/12/22 03:37:40;;;;;;;15.52;2.10;;;;;;;;;;4955314;28;20058;-73
2023/12/22 03:40:07;;;;;;;15.23;2.25;;;;;;;;;;4957124;28;20055;-74
2023/12/22 03:42:35;;;;;;;20.27;2.70;;;;;;;;;;4957917;28;20050;-74
2023/12/22 03:45:02;;;;;;;24.55;2.65;;;;;;;;;;4951730;28;20051;-74
2023/12/22 03:47:29;;;;;;;23.15;2.45;;;;;;;;;;4961475;28;20241;-74
2023/12/22 03:49:58;;;;;;;27.17;2.35;;;;;;;;;;4959270;28;20100;-73
2023/12/22 03:52:25;;;;;;;22.25;2.42;;;;;;;;;;4956744;28;20507;-74
2023/12/22 03:54:52;;;;;;;17.42;2.30;;;;;;;;;;4954406;28;20043;-72
2023/12/22 03:57:20;;;;;;;18.00;2.63;;;;;;;;;;4952648;28;20091;-72
2023/12/22 03:59:47;;;;;;;28.48;3.15;;;;;;;;;;4952091;28;20047;-72
2023/12/22 04:02:14;;;;;;;21.10;3.17;;;;;;;;;;4957364;28;20055;-71
2023/12/22 04:04:42;;;;;;;18.25;1.98;;;;;;;;;;4955835;28;20055;-72
2023/12/22 04:07:10;;;;;;;29.27;3.45;;;;;;;;;;4954141;28;20049;-71
2023/12/22 04:09:39;;;;;;;26.92;3.88;;;;;;;;;;4951989;28;20047;-69
2023/12/22 04:12:07;;;;;;;19.23;2.97;;;;;;;;;;4958699;28;20062;-72
2023/12/22 04:14:34;;;;;;;21.90;2.88;;;;;;;;;;4974993;28;20446;-71
2023/12/22 04:17:01;;;;;;;25.50;3.67;;;;;;;;;;4982612;28;20082;-71
2023/12/22 04:19:28;;;;;;;20.83;2.30;;;;;;;;;;4974950;28;20057;-71
2023/12/22 04:21:56;;;;;;;21.08;2.53;;;;;;;;;;4980409;28;20101;-71
2023/12/22 04:24:24;;;;;;;18.48;1.98;;;;;;;;;;4970214;28;20046;-71
2023/12/22 04:26:52;;;;;;;20.42;2.60;;;;;;;;;;4974423;28;20051;-71
2023/12/22 04:29:19;;;;;;;25.83;2.90;;;;;;;;;;4974114;28;20046;-72
2023/12/22 04:31:46;;;;;;;17.23;2.33;;;;;;;;;;4982508;28;20054;-71
2023/12/22 04:34:15;;;;;;;25.23;3.15;;;;;;;;;;4981454;28;20050;-72
2023/12/22 04:36:42;;;;;;;13.75;2.40;;;;;;;;;;4977245;28;20514;-71
2023/12/22 04:39:10;;;;;;;21.52;2.70;;;;;;;;;;4974388;28;20058;-71
2023/12/22 04:41:38;;;;;;;19.40;2.88;;;;;;;;;;4974843;28;20050;-71
2023/12/22 04:44:06;;;;;;;23.83;3.13;;;;;;;;;;4976913;28;20054;-71
2023/12/22 04:46:33;;;;;;;27.88;2.95;;;;;;;;;;4973607;28;20485;-70
2023/12/22 04:49:01;;;;;;;23.85;3.05;;;;;;;;;;4973088;28;20524;-72
2023/12/22 04:51:29;;;;;;;17.77;2.60;;;;;;;;;;4977284;28;20052;-72
2023/12/22 04:53:56;;;;;;;19.20;2.88;;;;;;;;;;4986881;28;20046;-71
2023/12/22 04:56:23;;;;;;;16.95;1.80;;;;;;;;;;4978049;28;20465;-72
2023/12/22 04:58:52;;;;;;;13.95;2.10;;;;;;;;;;4985955;28;20080;-71
2023/12/22 05:01:19;;;;;;;14.20;2.20;;;;;;;;;;4984460;28;20586;-72
2023/12/22 05:03:46;;;;;;;15.40;2.78;;;;;;;;;;4980710;28;20056;-74
2023/12/22 05:06:14;;;;;;;19.30;2.50;;;;;;;;;;4988347;28;20050;-74
2023/12/22 05:08:41;;;;;;;18.88;2.42;;;;;;;;;;4989680;28;20138;-75
2023/12/22 05:11:08;;;;;;;17.33;2.63;;;;;;;;;;4987613;28;20046;-74
2023/12/22 05:13:36;;;;;;;17.15;2.15;;;;;;;;;;4989240;28;20054;-73
2023/12/22 05:16:05;;;;;;;26.40;2.60;;;;;;;;;;4989231;28;20058;-74
2023/12/22 05:18:33;;;;;;;19.80;2.78;;;;;;;;;;4987876;28;20038;-74
2023/12/22 05:21:00;;;;;;;23.73;2.42;;;;;;;;;;4989597;28;20485;-74
2023/12/22 05:23:27;;;;;;;24.98;2.42;;;;;;;;;;4988645;28;20456;-74
2023/12/22 05:25:54;;;;;;;17.40;2.45;;;;;;;;;;4987934;28;20073;-74
2023/12/22 05:28:22;;;;;;;16.92;2.05;;;;;;;;;;4988996;28;20054;-74
2023/12/22 05:30:49;;;;;;;18.25;2.55;;;;;;;;;;4988027;28;20052;-74
2023/12/22 05:33:18;;;;;;;19.27;2.53;;;;;;;;;;4974324;28;20058;-75
2023/12/22 05:35:45;;;;;;;21.73;2.47;;;;;;;;;;4973256;28;20057;-75
2023/12/22 05:38:12;;;;;;;18.05;3.35;;;;;;;;;;4990017;28;20054;-75
2023/12/22 05:40:39;;;;;;;13.80;2.25;;;;;;;;;;4973709;28;20057;-75
2023/12/22 05:43:07;;;;;;;17.00;2.00;;;;;;;;;;4978868;28;20050;-75
2023/12/22 05:45:34;;;;;;;10.88;1.33;;;;;;;;;;4988568;28;20046;-74
2023/12/22 05:48:01;;;;;;;21.08;2.35;;;;;;;;;;4988866;28;20133;-74
2023/12/22 05:50:30;;;;;;;13.50;1.65;;;;;;;;;;4988245;28;20501;-74
2023/12/22 05:52:57;;;;;;;16.17;1.98;;;;;;;;;;4988948;28;20050;-74
2023/12/22 05:55:24;;;;;;;17.70;2.33;;;;;;;;;;4988167;28;20050;-74
2023/12/22 05:57:52;;;;;;;12.35;1.92;;;;;;;;;;4980556;28;20058;-74
2023/12/22 06:00:19;;;;;;;14.13;2.05;;;;;;;;;;4984393;28;20049;-74
2023/12/22 06:02:46;;;;;;;16.27;2.42;;;;;;;;;;4989622;28;20064;-75
2023/12/22 06:05:14;;;;;;;14.68;1.75;;;;;;;;;;4986796;28;20078;-75
2023/12/22 06:07:43;;;;;;;18.05;2.95;;;;;;;;;;4988224;28;20405;-75
2023/12/22 06:10:10;;;;;;;15.85;2.35;;;;;;;;;;4987895;28;20046;-74
2023/12/22 06:12:38;;;;;;;18.50;2.47;;;;;;;;;;4977800;28;20069;-73
2023/12/22 06:15:05;;;;;;;12.52;1.67;;;;;;;;;;4973657;28;20046;-70
2023/12/22 06:17:33;;;;;;;16.90;2.70;;;;;;;;;;4986727;28;20133;-70
2023/12/22 06:20:00;;;;;;;21.80;3.42;;;;;;;;;;4987788;28;20043;-70
2023/12/22 06:22:27;;;;;;;18.33;2.90;;;;;;;;;;4977217;28;20051;-71
2023/12/22 06:24:56;;;;;;;14.38;2.10;;;;;;;;;;4985016;28;20110;-70
2023/12/22 06:27:23;;;;;;;16.70;2.80;;;;;;;;;;4987437;28;20047;-71
2023/12/22 06:29:50;;;;;;;12.05;2.15;;;;;;;;;;4987894;28;20054;-69
2023/12/22 06:32:18;;;;;;;17.38;2.42;;;;;;;;;;4977498;28;20053;-69
2023/12/22 06:34:45;;;;;;;16.77;2.50;;;;;;;;;;4988189;28;21297;-69
2023/12/22 06:37:12;;;;;;;14.48;2.60;;;;;;;;;;4986492;28;20065;-69
2023/12/22 06:39:40;;;;;;;16.98;2.03;;;;;;;;;;4985853;28;20402;-69
2023/12/22 06:42:12;;;;;;;10.45;2.00;;;;;;;;;;4991330;28;20117;-68
2023/12/22 06:44:39;;;;;;;14.88;2.10;;;;;;;;;;4986805;28;20516;-68
2023/12/22 06:47:06;;;;;;;14.45;2.05;;;;;;;;;;4976800;28;20046;-68
2023/12/22 06:49:34;;;;;;;12.52;2.00;;;;;;;;;;4997643;28;20129;-68
2023/12/22 06:52:01;;;;;;;13.27;2.45;;;;;;;;;;4991766;28;20046;-68
2023/12/22 06:54:29;;;;;;;17.35;2.65;;;;;;;;;;4991052;28;20129;-69
2023/12/22 06:56:56;;;;;;;22.90;2.80;;;;;;;;;;4990248;28;20038;-70
2023/12/22 06:59:24;;;;;;;12.82;1.77;;;;;;;;;;4982897;28;20058;-70
2023/12/22 07:01:52;;;;;;;19.33;2.20;;;;;;;;;;4991260;28;20053;-69
2023/12/22 07:04:19;;;;;;;14.07;1.60;;;;;;;;;;4983170;28;20064;-69
2023/12/22 07:06:47;;;;;;;16.23;2.10;;;;;;;;;;4991197;28;20050;-69
2023/12/22 07:09:33;;;;;;;13.35;2.30;;;;;;;;;;4981592;28;20449;-69
2023/12/22 07:12:01;;;;;;;15.43;2.08;;;;;;;;;;4990704;28;20046;-69
2023/12/22 07:14:30;;;;;;;17.73;2.30;;;;;;;;;;4992083;28;20667;-69
2023/12/22 07:17:00;;;;;;;16.00;2.03;;;;;;;;;;4991435;28;20045;-69
2023/12/22 07:19:27;;;;;;;22.60;2.63;;;;;;;;;;4977363;28;20056;-68
2023/12/22 07:21:54;;;;;;;19.00;2.25;;;;;;;;;;4991594;28;20841;-70
2023/12/22 07:24:22;;;;;;;19.60;2.13;;;;;;;;;;4989839;28;20050;-69
2023/12/22 07:26:49;;;;;;;19.33;2.00;;;;;;;;;;4975820;28;20050;-69
2023/12/22 07:29:16;;;;;;;29.63;2.38;;;;;;;;;;4974996;28;20066;-69
2023/12/22 07:31:45;;;;;;;17.60;2.83;;;;;;;;;;4983073;28;20059;-69
2023/12/22 07:34:12;;;;;;;12.10;1.92;;;;;;;;;;4989712;28;20061;-69
2023/12/22 07:36:39;;;;;;;20.08;2.13;;;;;;;;;;4990225;28;20054;-69
2023/12/22 07:39:07;;;;;;;17.58;2.00;;;;;;;;;;4990578;28;20042;-68
2023/12/22 07:41:34;;;;;;;17.27;2.22;;;;;;;;;;4990420;28;20047;-69
2023/12/22 07:44:02;;;;;;;21.23;2.97;;;;;;;;;;4990920;28;20401;-68
2023/12/22 07:46:29;;;;;;;16.80;1.83;;;;;;;;;;4990428;28;20042;-69
2023/12/22 07:48:58;;;;;;;15.13;1.80;;;;;;;;;;4990569;28;20133;-69
2023/12/22 07:51:25;;;;;;;14.25;2.10;;;;;;;;;;4989733;28;20128;-69
2023/12/22 07:53:52;;;;;;;15.43;1.70;;;;;;;;;;4990482;28;20054;-69
2023/12/22 07:56:20;;;;;;;10.05;1.75;;;;;;;;;;4989933;28;20100;-69
2023/12/22 07:58:47;;;;;;;8.95;1.92;;;;;;;;;;4990131;28;20050;-69
2023/12/22 08:01:15;;;;;;;14.63;1.77;;;;;;;;;;4989682;28;20130;-70
2023/12/22 08:03:42;;;;;;;14.20;1.50;;;;;;;;;;4990683;28;20043;-70
2023/12/22 08:06:12;;;;;;;10.65;1.45;;;;;;;;;;4989516;28;20046;-69
2023/12/22 08:08:40;;;;;;;12.50;1.30;;;;;;;;;;4986908;28;20909;-69
2023/12/22 08:11:08;;;;;;;16.30;1.33;;;;;;;;;;4976671;28;20058;-69
2023/12/22 08:13:35;;;;;;;8.82;1.13;;;;;;;;;;4975151;28;20405;-69
2023/12/22 08:16:02;;;;;;;9.48;1.17;;;;;;;;;;4990257;28;20157;-70
2023/12/22 08:18:31;;;;;;;7.95;1.27;;;;;;;;;;4990624;28;20457;-70
2023/12/22 08:20:58;;;;;;;11.85;0.80;;;;;;;;;;4989738;28;20054;-70
2023/12/22 08:23:27;;;;;;;8.98;1.00;;;;;;;;;;4976017;28;20516;-69
2023/12/22 08:25:54;;;;;;;10.57;1.20;;;;;;;;;;4990053;28;20042;-69
2023/12/22 08:28:21;;;;;;;13.73;1.17;;;;;;;;;;4989510;28;20043;-69
2023/12/22 08:30:48;;;;;;;14.90;1.77;;;;;;;;;;4977575;28;20072;-69
2023/12/22 08:33:16;;;;;;;8.93;1.30;;;;;;;;;;4990671;28;20047;-69
2023/12/22 08:35:43;;;;;;;12.98;1.65;;;;;;;;;;4989473;28;20042;-70
2023/12/22 08:38:13;;;;;;;13.88;2.00;;;;;;;;;;4989344;28;20054;-70
2023/12/22 08:40:41;;;;;;;18.70;2.60;;;;;;;;;;4989129;28;20054;-69
2023/12/22 08:43:08;;;;;;;14.40;1.50;;;;;;;;;;4976689;28;20113;-74
2023/12/22 08:45:36;;;;;;;17.33;2.10;;;;;;;;;;4990184;28;20541;-74
2023/12/22 08:48:07;;;;;;;10.27;1.67;;;;;;;;;;4989482;28;20054;-74
2023/12/22 08:50:34;;;;;;;10.32;2.20;;;;;;;;;;4989283;28;20042;-74
2023/12/22 08:53:02;;;;;;;11.70;1.95;;;;;;;;;;4989928;28;20248;-74
2023/12/22 08:55:29;;;;;;;11.52;2.13;;;;;;;;;;4990125;28;20050;-74
2023/12/22 08:57:58;;;;;;;11.25;1.38;;;;;;;;;;4989115;28;20046;-74
2023/12/22 09:00:25;;;;;;;14.00;1.98;;;;;;;;;;4988848;28;20053;-74
2023/12/22 09:02:53;;;;;;;11.73;1.35;;;;;;;;;;4976972;28;20157;-73
2023/12/22 09:05:21;;;;;;;13.93;1.75;;;;;;;;;;4989288;28;20050;-74
2023/12/22 09:07:48;;;;;;;13.95;2.00;;;;;;;;;;4985535;28;20108;-74
2023/12/22 09:10:15;;;;;;;11.80;2.13;;;;;;;;;;4978901;28;20058;-74
2023/12/22 09:12:43;;;;;;;12.30;1.55;;;;;;;;;;4988724;28;20069;-75
2023/12/22 09:15:11;;;;;;;20.52;2.65;;;;;;;;;;4990172;28;20050;-74
2023/12/22 09:17:39;;;;;;;14.55;1.85;;;;;;;;;;4972633;28;20065;-74
2023/12/22 09:20:07;;;;;;;12.82;1.83;;;;;;;;;;4988996;28;20133;-74
2023/12/22 09:22:35;;;;;;;18.45;2.05;;;;;;;;;;4971925;28;20086;-74
2023/12/22 09:25:02;;;;;;;20.02;2.53;;;;;;;;;;4987633;28;20042;-74
2023/12/22 09:27:30;;;;;;;10.82;1.65;;;;;;;;;;4987758;28;20065;-74
2023/12/22 09:29:58;;;;;;;8.20;1.70;;;;;;;;;;4989706;28;20042;-74
2023/12/22 09:32:26;;;;;;;17.50;1.60;;;;;;;;;;4988643;28;20521;-74
2023/12/22 09:34:55;;;;;;;16.13;1.70;;;;;;;;;;4975836;28;20101;-74
2023/12/22 09:37:22;;;;;;;19.60;2.00;;;;;;;;;;4986861;28;20046;-74
2023/12/22 09:39:49;;;;;;;18.50;1.83;;;;;;;;;;4979814;28;20054;-75
2023/12/22 09:42:17;;;;;;;12.95;2.25;;;;;;;;;;4987881;28;20057;-75
2023/12/22 09:44:44;;;;;;;14.70;1.58;;;;;;;;;;4988798;28;20186;-74
2023/12/22 09:47:13;;;;;;;14.13;2.67;;;;;;;;;;4987890;28;20046;-74
2023/12/22 09:49:42;;;;;;;13.38;1.48;;;;;;;;;;4983554;28;20545;-74
2023/12/22 09:52:09;;;;;;;13.70;1.75;;;;;;;;;;4987652;28;20050;-74
2023/12/22 09:54:38;;;;;;;14.60;1.77;;;;;;;;;;4990043;28;20054;-70
2023/12/22 09:57:06;;;;;;;18.10;3.13;;;;;;;;;;4987447;28;20383;-70
2023/12/22 09:59:34;;;;;;;16.50;2.00;;;;;;;;;;4972899;28;20048;-70
2023/12/22 10:02:02;;;;;;;23.45;2.15;;;;;;;;;;4988311;28;20102;-69
2023/12/22 10:04:29;;;;;;;20.70;1.90;;;;;;;;;;4989855;28;20517;-72
2023/12/22 10:07:00;;;;;;;14.20;1.38;;;;;;;;;;4975539;28;20050;-71
2023/12/22 10:09:28;;;;;;;9.30;1.40;;;;;;;;;;4987656;28;20556;-71
2023/12/22 10:11:56;;;;;;;11.77;1.25;;;;;;;;;;4977055;28;20054;-72
2023/12/22 10:14:24;;;;;;;10.05;1.38;;;;;;;;;;4979449;28;20061;-74
2023/12/22 10:16:51;;;;;;;10.23;1.40;;;;;;;;;;4980945;28;20397;-75
2023/12/22 10:19:18;;;;;;;15.98;1.60;;;;;;;;;;4991585;28;20596;-74
2023/12/22 10:21:45;;;;;;;13.10;1.98;;;;;;;;;;4991564;28;20050;-74
2023/12/22 10:24:27;;;;;;;13.00;1.52;;;;;;;;;;4991252;28;20050;-74
2023/12/22 10:26:56;;;;;;;15.38;1.70;;;;;;;;;;4981493;28;20061;-74
2023/12/22 10:29:23;;;;;;;17.85;2.10;;;;;;;;;;4991973;28;20058;-74
2023/12/22 10:31:51;;;;;;;23.38;1.40;;;;;;;;;;4992756;28;20050;-75
2023/12/22 10:34:18;;;;;;;13.10;1.80;;;;;;;;;;4987819;28;20465;-74
2023/12/22 10:36:46;;;;;;;19.98;3.67;;;;;;;;;;4976553;28;20081;-75
2023/12/22 10:39:13;;;;;;;7.75;1.30;;;;;;;;;;4978744;28;20117;-75
2023/12/22 10:41:40;;;;;;;17.10;2.10;;;;;;;;;;4991713;28;20054;-74
2023/12/22 10:44:09;;;;;;;14.13;2.53;;;;;;;;;;4977541;28;20057;-75
2023/12/22 10:46:37;;;;;;;19.38;1.80;;;;;;;;;;4977544;28;20068;-75
2023/12/22 10:49:04;;;;;;;19.58;2.65;;;;;;;;;;4990922;28;20053;-74
2023/12/22 10:51:32;;;;;;;10.18;1.88;;;;;;;;;;4992671;28;20486;-75
2023/12/22 10:54:00;;;;;;;12.50;2.05;;;;;;;;;;4991294;28;20047;-75
2023/12/22 10:56:28;;;;;;;12.68;1.30;;;;;;;;;;4978052;28;20069;-73
2023/12/22 10:58:55;;;;;;;17.42;2.15;;;;;;;;;;4974073;28;20042;-74
2023/12/22 11:01:25;;;;;;;16.77;1.98;;;;;;;;;;4991236;28;20133;-75
2023/12/22 11:03:53;;;;;;;14.60;1.60;;;;;;;;;;4991811;28;20053;-75
2023/12/22 11:06:21;;;;;;;16.25;1.85;;;;;;;;;;4991269;28;20052;-75
2023/12/22 11:08:51;;;;;;;14.75;1.80;;;;;;;;;;4979858;28;20073;-75
2023/12/22 11:11:23;;;;;;;16.80;1.70;;;;;;;;;;4991088;28;20413;-75
2023/12/22 11:13:51;;;;;;;15.23;1.98;;;;;;;;;;4991897;28;20088;-75
2023/12/22 11:16:19;;;;;;;12.43;1.70;;;;;;;;;;4990714;28;20069;-74
2023/12/22 11:18:48;;;;;;;18.05;2.05;;;;;;;;;;4975275;28;20406;-74
2023/12/22 11:21:15;;;;;;;14.98;1.77;;;;;;;;;;4990321;28;20045;-75
2023/12/22 11:23:43;;;;;;;16.67;1.48;;;;;;;;;;4991295;28;20050;-71
2023/12/22 11:26:12;;;;;;;13.18;1.75;;;;;;;;;;4970312;28;20062;-72
2023/12/22 11:28:40;;;;;;;15.88;1.60;;;;;;;;;;4991693;28;20092;-71
2023/12/22 11:31:08;;;;;;;17.30;1.73;;;;;;;;;;4983957;28;20058;-71
2023/12/22 11:33:37;;;;;;;17.13;1.33;;;;;;;;;;4974742;28;20046;-71
2023/12/22 11:36:06;;;;;;;8.77;1.42;;;;;;;;;;4988731;28;20113;-71
2023/12/22 11:38:34;;;;;;;19.33;2.72;;;;;;;;;;4990109;28;20054;-71
2023/12/22 11:41:02;;;;;;;16.50;1.50;;;;;;;;;;4990109;28;20049;-72
2023/12/22 11:43:30;;;;;;;21.63;2.03;;;;;;;;;;4976443;28;20060;-72
2023/12/22 11:45:57;;;;;;;11.80;1.55;;;;;;;;;;4974266;28;20050;-72
2023/12/22 11:48:25;;;;;;;14.02;1.98;;;;;;;;;;4976869;28;20058;-72
2023/12/22 11:50:52;;;;;;;24.02;2.53;;;;;;;;;;4991397;28;20054;-71
2023/12/22 11:53:22;;;;;;;14.45;1.63;;;;;;;;;;4976139;28;20489;-71
2023/12/22 11:55:59;;;;;;;14.27;2.35;;;;;;;;;;4976468;28;20747;-71
2023/12/22 11:58:36;;;;;;;14.35;2.45;;;;;;;;;;4988189;28;20050;-72
2023/12/22 12:01:04;;;;;;;14.07;2.08;;;;;;;;;;4974079;28;20268;-72
2023/12/22 12:03:32;;;;;;;16.35;1.65;;;;;;;;;;4973839;28;20187;-72
2023/12/22 12:06:12;;;;;;;12.60;1.40;;;;;;;;;;4970993;28;20054;-72
2023/12/22 12:08:41;;;;;;;14.52;1.80;;;;;;;;;;4973997;28;20046;-72
2023/12/22 12:11:09;;;;;;;11.32;1.27;;;;;;;;;;4988571;28;20057;-72
2023/12/22 12:13:38;;;;;;;18.42;1.85;;;;;;;;;;4969077;28;20065;-72
2023/12/22 12:16:08;;;;;;;12.68;1.75;;;;;;;;;;4963193;28;20494;-72
2023/12/22 12:18:36;;;;;;;12.20;1.50;;;;;;;;;;4981441;28;20101;-72
2023/12/22 12:21:03;;;;;;;14.18;1.38;;;;;;;;;;4967801;28;20043;-72
2023/12/22 12:23:30;;;;;;;15.10;2.03;;;;;;;;;;4970550;28;20051;-72
2023/12/22 12:25:59;;;;;;;19.70;1.55;;;;;;;;;;4968500;28;20046;-72
2023/12/22 12:28:27;;;;;;;12.55;1.50;;;;;;;;;;4969468;28;20054;-72
2023/12/22 12:30:59;;;;;;;16.02;1.92;;;;;;;;;;4967131;28;20046;-72
2023/12/22 12:33:27;;;;;;;15.47;1.50;;;;;;;;;;4965053;28;20097;-71
2023/12/22 12:35:54;;;;;;;10.30;1.30;;;;;;;;;;4968793;28;20051;-72
2023/12/22 12:38:23;;;;;;;8.18;1.00;;;;;;;;;;4967818;28;20054;-72
2023/12/22 12:40:52;;;;;;;10.48;1.13;;;;;;;;;;4968276;28;20423;-72
2023/12/22 12:43:21;;;;;;;12.98;1.70;;;;;;;;;;4969804;28;20051;-72
2023/12/22 12:45:48;;;;;;;18.85;2.35;;;;;;;;;;4965885;28;20417;-72
2023/12/22 12:48:18;;;;;;;11.68;1.13;;;;;;;;;;4969193;28;20059;-72
2023/12/22 12:50:45;;;;;;;10.68;2.13;;;;;;;;;;4968384;28;20623;-72
2023/12/22 12:53:13;;;;;;;10.23;1.20;;;;;;;;;;4967934;28;20050;-72
2023/12/22 12:55:40;;;;;;;13.70;1.42;;;;;;;;;;4969127;28;20409;-72
2023/12/22 12:58:07;;;;;;;8.82;1.17;;;;;;;;;;4967783;28;20402;-73
2023/12/22 13:00:36;;;;;;;17.10;1.95;;;;;;;;;;4969060;28;20051;-73
2023/12/22 13:03:04;;;;;;;13.95;1.52;;;;;;;;;;4967448;28;20054;-73
2023/12/22 13:05:31;;;;;;;7.60;1.08;;;;;;;;;;4969032;28;20477;-72
2023/12/22 13:08:08;;;;;;;13.32;1.33;;;;;;;;;;4968209;28;20069;-72
2023/12/22 13:10:36;;;;;;;11.50;1.23;;;;;;;;;;4964701;28;20062;-73
2023/12/22 13:13:03;;;;;;;9.65;1.05;;;;;;;;;;4967270;28;20082;-71
2023/12/22 13:15:31;;;;;;;9.27;0.95;;;;;;;;;;4981966;28;20883;-72
2023/12/22 13:17:59;;;;;;;9.85;1.48;;;;;;;;;;4970341;28;20417;-72
2023/12/22 13:20:27;;;;;;;15.65;1.77;;;;;;;;;;4973976;28;20058;-73
2023/12/22 13:22:54;;;;;;;7.93;1.10;;;;;;;;;;4975656;28;20506;-72
2023/12/22 13:25:23;;;;;;;8.07;1.50;;;;;;;;;;4969205;28;20085;-72
2023/12/22 13:27:51;;;;;;;14.98;0.95;;;;;;;;;;4977789;28;20054;-73
2023/12/22 13:30:33;;;;;;;9.95;1.25;;;;;;;;;;4976093;28;20058;-72
2023/12/22 13:33:02;;;;;;;13.13;1.50;;;;;;;;;;4976466;28;20050;-72
2023/12/22 13:35:29;;;;;;;9.18;1.17;;;;;;;;;;4973319;28;20133;-73
2023/12/22 13:37:57;;;;;;;8.38;1.15;;;;;;;;;;4982461;28;20051;-73
2023/12/22 13:40:24;;;;;;;12.88;1.50;;;;;;;;;;4977608;28;20516;-72
2023/12/22 13:42:55;;;;;;;9.15;1.10;;;;;;;;;;4972410;28;20074;-69
2023/12/22 13:45:22;;;;;;;3.50;0.50;;;;;;;;;;4970879;28;20437;-73
2023/12/22 13:47:50;;;;;;;10.18;1.05;;;;;;;;;;4967964;28;20053;-73
2023/12/22 13:50:19;;;;;;;5.85;0.77;;;;;;;;;;4968593;28;20145;-73
2023/12/22 13:52:48;;;;;;;7.32;0.88;;;;;;;;;;4970477;28;20050;-73
2023/12/22 13:55:17;;;;;;;15.02;0.80;;;;;;;;;;4966518;28;20145;-73
2023/12/22 13:57:45;;;;;;;9.32;0.90;;;;;;;;;;4970175;28;20081;-73
2023/12/22 14:00:29;;;;;;;8.15;1.02;;;;;;;;;;4970259;28;20058;-72
2023/12/22 14:02:56;;;;;;;;;;;;;;;;;;4970562;28;20113;-73
2023/12/22 14:05:24;;;;;;;11.63;0.98;;;;;;;;;;4969810;28;20452;-73
2023/12/22 14:07:52;;;;;;;11.90;1.52;;;;;;;;;;4969576;28;20138;-73
2023/12/22 14:10:19;;;;;;;15.00;1.20;;;;;;;;;;4972738;28;20078;-73
2023/12/22 14:12:46;;;;;;;14.00;1.23;;;;;;;;;;4971932;28;20054;-73
2023/12/22 14:15:14;;;;;;;10.68;1.38;;;;;;;;;;4996649;28;20085;-73
2023/12/22 14:17:43;;;;;;;9.43;1.20;;;;;;;;;;4987958;28;20483;-73
2023/12/22 14:20:11;;;;;;;16.33;2.15;;;;;;;;;;4987369;28;20493;-73
2023/12/22 14:22:40;;;;;;;12.60;1.40;;;;;;;;;;4986400;28;20509;-73
2023/12/22 14:25:07;;;;;;;20.50;1.65;;;;;;;;;;4988266;28;20058;-73
2023/12/22 14:27:35;;;;;;;12.60;1.40;;;;;;;;;;4972153;28;20498;-73
2023/12/22 14:30:02;;;;;;;11.95;1.08;;;;;;;;;;4972435;28;20093;-73
2023/12/22 14:32:29;;;;;;;7.07;0.85;;;;;;;;;;4974308;28;20146;-73
2023/12/22 14:34:57;;;;;;;12.95;1.13;;;;;;;;;;4988545;28;20055;-73